createdAt,value
2018-03-17T00:01:50.051Z,10.75
2018-03-17T00:04:18.338Z,10.10
2018-03-17T00:06:48.066Z,10.13
2018-03-17T00:09:16.601Z,10.38
2018-03-17T00:11:45.035Z,9.80
2018-03-17T00:14:13.152Z,10.85
2018-03-17T00:16:41.246Z,10.50
2018-03-17T00:19:09.283Z,9.80
2018-03-17T00:21:37.359Z,9.80
2018-03-17T00:24:07.621Z,10.13
2018-03-17T00:26:35.969Z,10.30
2018-03-17T00:29:05.234Z,10.63
2018-03-17T00:31:33.288Z,9.80
2018-03-17T00:34:01.333Z,9.65
2018-03-17T00:36:29.413Z,9.35
2018-03-17T00:38:58.216Z,10.35
2018-03-17T00:41:26.259Z,9.52
2018-03-17T00:43:54.333Z,9.40
2018-03-17T00:46:22.393Z,9.70
2018-03-17T00:48:50.482Z,9.30
2018-03-17T00:51:18.527Z,9.35
2018-03-17T00:53:46.593Z,8.57
2018-03-17T00:56:14.625Z,8.90
2018-03-17T00:58:42.658Z,8.43
2018-03-17T01:01:11.485Z,8.75
2018-03-17T01:03:39.534Z,8.43
2018-03-17T01:06:07.564Z,8.75
2018-03-17T01:08:37.121Z,8.52
2018-03-17T01:11:05.171Z,8.98
2018-03-17T01:13:33.222Z,8.57
2018-03-17T01:16:02.777Z,8.70
2018-03-17T01:18:33.800Z,7.97
2018-03-17T01:21:04.138Z,8.60
2018-03-17T01:23:45.060Z,9.27
2018-03-17T01:26:19.412Z,8.48
2018-03-17T01:28:52.538Z,8.38
2018-03-17T01:31:26.498Z,7.68
2018-03-17T01:34:09.316Z,8.05
2018-03-17T01:36:38.163Z,8.50
2018-03-17T01:39:07.124Z,8.13
2018-03-17T01:41:35.164Z,8.32
2018-03-17T01:44:03.211Z,8.25
2018-03-17T01:46:31.478Z,8.13
2018-03-17T01:48:59.492Z,8.05
2018-03-17T01:51:27.532Z,7.87
2018-03-17T01:53:56.900Z,8.23
2018-03-17T01:56:25.071Z,7.85
2018-03-17T01:58:53.892Z,7.93
2018-03-17T02:01:22.162Z,8.15
2018-03-17T02:03:50.238Z,8.10
2018-03-17T02:06:18.254Z,7.95
2018-03-17T02:08:46.312Z,8.25
2018-03-17T02:11:14.658Z,7.80
2018-03-17T02:13:42.700Z,7.70
2018-03-17T02:16:10.738Z,7.10
2018-03-17T02:18:38.768Z,7.95
2018-03-17T02:21:06.815Z,7.15
2018-03-17T02:23:34.853Z,7.10
2018-03-17T02:26:02.874Z,7.15
2018-03-17T02:28:30.915Z,7.27
2018-03-17T02:30:58.933Z,7.20
2018-03-17T02:33:26.982Z,7.00
2018-03-17T02:35:55.047Z,7.15
2018-03-17T02:38:23.088Z,7.05
2018-03-17T02:40:51.171Z,7.10
2018-03-17T02:43:19.199Z,7.03
2018-03-17T02:45:49.488Z,7.03
2018-03-17T02:48:17.507Z,6.95
2018-03-17T02:50:45.546Z,6.95
2018-03-17T02:53:13.618Z,6.97
2018-03-17T02:55:41.648Z,6.70
2018-03-17T02:58:09.928Z,7.25
2018-03-17T03:00:39.347Z,6.60
2018-03-17T03:03:07.407Z,6.87
2018-03-17T03:05:36.393Z,6.30
2018-03-17T03:08:05.549Z,6.50
2018-03-17T03:10:34.721Z,6.30
2018-03-17T03:13:04.521Z,6.50
2018-03-17T03:15:33.329Z,6.53
2018-03-17T03:18:01.393Z,6.45
2018-03-17T03:20:29.416Z,6.55
2018-03-17T03:22:57.449Z,6.50
2018-03-17T03:25:25.483Z,5.97
2018-03-17T03:27:54.653Z,5.97
2018-03-17T03:30:22.738Z,6.20
2018-03-17T03:32:50.779Z,6.05
2018-03-17T03:35:18.813Z,6.50
2018-03-17T03:37:47.181Z,6.05
2018-03-17T03:40:15.197Z,6.18
2018-03-17T03:42:43.263Z,6.37
2018-03-17T03:45:11.297Z,6.18
2018-03-17T03:47:40.097Z,5.90
2018-03-17T03:50:08.120Z,5.43
2018-03-17T03:52:36.146Z,5.78
2018-03-17T03:55:04.213Z,6.15
2018-03-17T03:57:32.229Z,5.65
2018-03-17T04:00:00.697Z,5.70
2018-03-17T04:02:28.944Z,6.05
2018-03-17T04:04:56.984Z,5.60
2018-03-17T04:07:25.314Z,5.82
2018-03-17T04:09:53.361Z,5.80
2018-03-17T04:12:21.378Z,5.57
2018-03-17T04:14:49.416Z,5.60
2018-03-17T04:17:17.460Z,5.53
2018-03-17T04:19:45.505Z,5.10
2018-03-17T04:22:13.532Z,5.62
2018-03-17T04:24:41.575Z,5.40
2018-03-17T04:27:09.620Z,5.43
2018-03-17T04:29:37.676Z,5.47
2018-03-17T04:32:05.770Z,5.63
2018-03-17T04:34:34.794Z,5.18
2018-03-17T04:37:03.590Z,5.10
2018-03-17T04:39:31.627Z,4.82
2018-03-17T04:41:59.659Z,5.03
2018-03-17T04:44:27.960Z,5.35
2018-03-17T04:46:55.997Z,5.20
2018-03-17T04:49:24.048Z,5.07
2018-03-17T04:51:52.844Z,4.72
2018-03-17T04:54:20.875Z,5.10
2018-03-17T04:56:51.796Z,4.80
2018-03-17T04:59:20.372Z,5.07
2018-03-17T05:01:48.413Z,5.27
2018-03-17T05:04:16.456Z,4.73
2018-03-17T05:06:44.515Z,5.10
2018-03-17T05:09:13.040Z,5.07
2018-03-17T05:11:41.101Z,5.00
2018-03-17T05:14:09.174Z,4.43
2018-03-17T05:16:37.226Z,4.30
2018-03-17T05:19:05.249Z,4.67
2018-03-17T05:21:33.306Z,5.03
2018-03-17T05:24:02.115Z,4.70
2018-03-17T05:26:30.927Z,4.20
2018-03-17T05:28:58.967Z,4.30
2018-03-17T05:31:26.999Z,3.90
2018-03-17T05:33:55.047Z,4.27
2018-03-17T05:36:23.112Z,4.17
2018-03-17T05:38:51.151Z,4.20
2018-03-17T05:41:19.751Z,4.43
2018-03-17T05:43:47.802Z,4.13
2018-03-17T05:46:15.848Z,4.07
2018-03-17T05:48:43.923Z,4.30
2018-03-17T05:51:12.731Z,4.30
2018-03-17T05:53:40.770Z,4.07
2018-03-17T05:56:08.814Z,3.93
2018-03-17T05:58:36.834Z,4.05
2018-03-17T06:01:04.924Z,3.70
2018-03-17T06:03:33.629Z,3.37
2018-03-17T06:06:01.652Z,4.00
2018-03-17T06:08:29.721Z,3.95
2018-03-17T06:10:57.766Z,3.97
2018-03-17T06:13:25.798Z,3.30
2018-03-17T06:15:55.144Z,3.90
2018-03-17T06:18:23.164Z,3.60
2018-03-17T06:20:51.253Z,3.93
2018-03-17T06:23:19.288Z,3.50
2018-03-17T06:25:47.359Z,3.60
2018-03-17T06:28:15.400Z,3.40
2018-03-17T06:30:43.482Z,3.30
2018-03-17T06:33:12.632Z,3.43
2018-03-17T06:35:42.064Z,3.37
2018-03-17T06:38:10.103Z,3.50
2018-03-17T06:40:38.135Z,3.40
2018-03-17T06:43:06.164Z,2.80
2018-03-17T06:45:34.240Z,2.70
2018-03-17T06:48:02.272Z,2.80
2018-03-17T06:50:30.319Z,2.80
2018-03-17T06:52:58.377Z,2.67
2018-03-17T06:55:26.487Z,2.62
2018-03-17T06:57:54.647Z,2.70
2018-03-17T07:00:22.683Z,2.42
2018-03-17T07:02:50.874Z,3.62
2018-03-17T07:05:18.936Z,4.87
2018-03-17T07:07:46.996Z,3.67
2018-03-17T07:10:15.052Z,4.07
2018-03-17T07:12:43.882Z,5.12
2018-03-17T07:15:11.940Z,5.80
2018-03-17T07:17:40.003Z,5.30
2018-03-17T07:20:08.115Z,3.97
2018-03-17T07:22:36.934Z,4.07
2018-03-17T07:25:04.995Z,3.50
2018-03-17T07:27:33.078Z,3.50
2018-03-17T07:30:01.139Z,3.00
2018-03-17T07:32:29.201Z,3.28
2018-03-17T07:34:57.598Z,3.17
2018-03-17T07:37:25.653Z,3.55
2018-03-17T07:39:53.713Z,3.17
2018-03-17T07:42:21.737Z,2.62
2018-03-17T07:44:49.824Z,3.05
2018-03-17T07:47:17.869Z,2.62
2018-03-17T07:49:45.909Z,2.90
2018-03-17T07:52:14.483Z,3.45
2018-03-17T07:54:43.348Z,4.22
2018-03-17T07:57:11.394Z,4.65
2018-03-17T07:59:39.451Z,3.70
2018-03-17T08:02:07.494Z,3.70
2018-03-17T08:04:35.565Z,3.90
2018-03-17T08:07:03.608Z,4.45
2018-03-17T08:09:31.663Z,4.90
2018-03-17T08:11:59.712Z,4.15
2018-03-17T08:14:27.826Z,5.32
2018-03-17T08:16:55.858Z,4.70
2018-03-17T08:19:23.917Z,4.90
2018-03-17T08:21:52.737Z,4.28
2018-03-17T08:24:20.803Z,4.97
2018-03-17T08:26:49.057Z,4.47
2018-03-17T08:29:17.321Z,3.97
2018-03-17T08:31:45.394Z,4.18
2018-03-17T08:34:13.460Z,4.05
2018-03-17T08:36:41.507Z,4.07
2018-03-17T08:39:09.624Z,3.92
2018-03-17T08:41:38.725Z,3.87
2018-03-17T08:44:06.760Z,4.50
2018-03-17T08:46:34.787Z,4.65
2018-03-17T08:49:03.881Z,4.53
2018-03-17T08:51:31.967Z,4.57
2018-03-17T08:54:00.031Z,4.35
2018-03-17T08:56:28.073Z,4.30
2018-03-17T08:58:56.906Z,4.57
2018-03-17T09:01:24.934Z,4.43
2018-03-17T09:03:52.961Z,4.43
2018-03-17T09:06:21.022Z,4.12
2018-03-17T09:08:49.058Z,4.10
2018-03-17T09:11:17.844Z,3.97
2018-03-17T09:13:45.883Z,4.37
2018-03-17T09:16:13.925Z,4.60
2018-03-17T09:18:41.970Z,5.35
2018-03-17T09:21:10.036Z,4.37
2018-03-17T09:23:39.193Z,4.37
2018-03-17T09:26:08.025Z,5.18
2018-03-17T09:28:37.174Z,5.40
2018-03-17T09:31:05.239Z,4.97
2018-03-17T09:33:33.270Z,4.75
2018-03-17T09:36:01.299Z,4.57
2018-03-17T09:38:29.372Z,4.30
2018-03-17T09:40:58.400Z,4.03
2018-03-17T09:43:26.403Z,5.18
2018-03-17T09:45:54.450Z,4.60
2018-03-17T09:48:22.509Z,4.82
2018-03-17T09:50:50.548Z,4.32
2018-03-17T09:53:19.100Z,4.40
2018-03-17T09:55:47.187Z,4.45
2018-03-17T09:58:15.291Z,4.45
2018-03-17T10:00:43.325Z,4.07
2018-03-17T10:03:11.396Z,5.12
2018-03-17T10:05:39.576Z,4.60
2018-03-17T10:08:07.632Z,4.82
2018-03-17T10:10:35.687Z,4.65
2018-03-17T10:13:03.759Z,4.45
2018-03-17T10:15:31.816Z,4.87
2018-03-17T10:17:59.850Z,4.72
2018-03-17T10:20:27.941Z,5.12
2018-03-17T10:22:55.980Z,5.10
2018-03-17T10:25:24.147Z,5.03
2018-03-17T10:27:52.211Z,5.47
2018-03-17T10:30:20.287Z,5.15
2018-03-17T10:32:48.366Z,4.93
2018-03-17T10:35:16.423Z,4.57
2018-03-17T10:37:44.513Z,4.80
2018-03-17T10:40:12.561Z,4.62
2018-03-17T10:42:40.613Z,5.25
2018-03-17T10:45:08.700Z,4.80
2018-03-17T10:47:36.755Z,4.68
2018-03-17T10:50:04.823Z,4.95
2018-03-17T10:52:37.205Z,4.95
2018-03-17T10:55:06.724Z,5.18
2018-03-17T10:57:34.831Z,5.10
2018-03-17T11:00:02.922Z,4.75
2018-03-17T11:02:32.734Z,4.97
2018-03-17T11:05:00.817Z,5.35
2018-03-17T11:07:28.968Z,4.50
2018-03-17T11:09:57.065Z,5.45
2018-03-17T11:12:25.082Z,5.05
2018-03-17T11:14:53.129Z,5.07
2018-03-17T11:17:21.944Z,5.22
2018-03-17T11:19:50.756Z,4.95
2018-03-17T11:22:18.793Z,4.70
2018-03-17T11:24:46.856Z,4.72
2018-03-17T11:27:14.925Z,4.70
2018-03-17T11:29:44.574Z,4.70
2018-03-17T11:32:12.592Z,4.70
2018-03-17T11:34:41.404Z,5.55
2018-03-17T11:37:09.456Z,5.43
2018-03-17T11:39:37.494Z,4.72
2018-03-17T11:42:05.564Z,5.37
2018-03-17T11:44:33.606Z,5.20
2018-03-17T11:47:01.694Z,5.35
2018-03-17T11:49:29.822Z,5.57
2018-03-17T11:51:57.860Z,5.18
2018-03-17T11:54:26.840Z,5.03
2018-03-17T11:56:54.904Z,5.27
2018-03-17T11:59:22.951Z,5.37
2018-03-17T12:01:51.019Z,5.47
2018-03-17T12:04:19.072Z,5.40
2018-03-17T12:06:47.563Z,5.15
2018-03-17T12:09:16.380Z,5.23
2018-03-17T12:11:44.454Z,5.40
2018-03-17T12:14:12.508Z,5.22
2018-03-17T12:16:41.124Z,5.75
2018-03-17T12:19:09.206Z,4.97
2018-03-17T12:21:37.424Z,5.70
2018-03-17T12:24:05.454Z,5.22
2018-03-17T12:26:33.487Z,5.53
2018-03-17T12:29:01.510Z,6.03
2018-03-17T12:31:29.575Z,5.68
2018-03-17T12:33:57.637Z,6.18
2018-03-17T12:36:25.685Z,5.57
2018-03-17T12:38:54.645Z,5.65
2018-03-17T12:41:23.445Z,5.62
2018-03-17T12:43:51.519Z,5.37
2018-03-17T12:46:20.567Z,5.68
2018-03-17T12:48:49.811Z,5.45
2018-03-17T12:51:18.661Z,5.37
2018-03-17T12:53:46.722Z,6.40
2018-03-17T12:56:15.203Z,6.03
2018-03-17T12:58:43.231Z,6.07
2018-03-17T13:01:11.292Z,5.45
2018-03-17T13:03:39.360Z,5.47
2018-03-17T13:06:07.415Z,6.00
2018-03-17T13:08:35.458Z,5.90
2018-03-17T13:11:03.493Z,6.62
2018-03-17T13:13:32.076Z,7.15
2018-03-17T13:16:00.120Z,7.12
2018-03-17T13:18:28.177Z,7.18
2018-03-17T13:20:56.257Z,7.00
2018-03-17T13:23:24.614Z,6.78
2018-03-17T13:25:52.682Z,6.97
2018-03-17T13:28:20.737Z,6.68
2018-03-17T13:30:49.560Z,6.70
2018-03-17T13:33:17.624Z,6.25
2018-03-17T13:35:45.665Z,6.90
2018-03-17T13:38:13.725Z,6.37
2018-03-17T13:40:42.542Z,6.50
2018-03-17T13:43:11.046Z,7.03
2018-03-17T13:45:39.253Z,6.50
2018-03-17T13:48:07.299Z,6.57
2018-03-17T13:50:35.653Z,6.70
2018-03-17T13:53:03.687Z,6.63
2018-03-17T13:55:31.761Z,6.37
2018-03-17T13:57:59.821Z,6.60
2018-03-17T14:00:27.878Z,6.65
2018-03-17T14:02:57.426Z,5.75
2018-03-17T14:05:25.523Z,6.00
2018-03-17T14:07:53.567Z,6.20
2018-03-17T14:10:21.598Z,6.18
2018-03-17T14:12:50.046Z,6.57
2018-03-17T14:15:18.314Z,6.18
2018-03-17T14:17:46.397Z,6.22
2018-03-17T14:20:14.557Z,5.70
2018-03-17T14:22:42.635Z,6.00
2018-03-17T14:25:10.690Z,6.53
2018-03-17T14:27:38.763Z,6.00
2018-03-17T14:30:06.812Z,6.40
2018-03-17T14:32:34.862Z,6.20
2018-03-17T14:35:02.908Z,5.85
2018-03-17T14:37:31.728Z,6.18
2018-03-17T14:39:59.771Z,6.12
2018-03-17T14:42:27.858Z,5.97
2018-03-17T14:44:55.900Z,6.15
2018-03-17T14:47:23.960Z,5.90
2018-03-17T14:49:51.987Z,6.12
2018-03-17T14:52:20.079Z,6.28
2018-03-17T14:54:48.910Z,6.18
2018-03-17T14:57:16.966Z,6.05
2018-03-17T14:59:45.818Z,6.10
2018-03-17T15:02:13.933Z,5.85
2018-03-17T15:04:42.032Z,5.80
2018-03-17T15:07:10.121Z,5.72
2018-03-17T15:09:38.188Z,6.10
2018-03-17T15:12:06.261Z,6.40
2018-03-17T15:14:34.314Z,6.15
2018-03-17T15:17:02.373Z,6.05
2018-03-17T15:19:30.458Z,6.10
2018-03-17T15:21:58.526Z,5.93
2018-03-17T15:24:26.632Z,5.63
2018-03-17T15:26:54.724Z,5.93
2018-03-17T15:29:22.764Z,5.50
2018-03-17T15:31:50.828Z,5.75
2018-03-17T15:34:18.876Z,5.70
2018-03-17T15:36:47.068Z,5.55
2018-03-17T15:39:15.112Z,5.85
2018-03-17T15:41:43.844Z,5.40
2018-03-17T15:44:11.924Z,5.90
2018-03-17T15:46:39.994Z,5.75
2018-03-17T15:49:08.105Z,5.30
2018-03-17T15:51:36.163Z,5.90
2018-03-17T15:54:04.954Z,5.57
2018-03-17T15:56:33.056Z,5.97
2018-03-17T15:59:01.123Z,5.57
2018-03-17T16:01:29.175Z,4.80
2018-03-17T16:03:57.263Z,6.15
2018-03-17T16:06:25.295Z,5.50
2018-03-17T16:08:53.379Z,6.07
2018-03-17T16:11:21.458Z,5.97
2018-03-17T16:13:49.514Z,6.10
2018-03-17T16:16:20.038Z,5.95
2018-03-17T16:18:49.697Z,6.05
2018-03-17T16:21:17.792Z,6.00
2018-03-17T16:23:45.795Z,5.85
2018-03-17T16:26:14.245Z,5.80
2018-03-17T16:28:44.245Z,6.33
2018-03-17T16:31:12.335Z,6.37
2018-03-17T16:33:40.747Z,5.80
2018-03-17T16:36:08.823Z,5.78
2018-03-17T16:38:36.872Z,5.43
2018-03-17T16:41:04.937Z,5.57
2018-03-17T16:43:32.975Z,5.72
2018-03-17T16:46:02.502Z,5.78
2018-03-17T16:48:30.601Z,5.68
2018-03-17T16:50:58.684Z,5.90
2018-03-17T16:53:26.749Z,6.10
2018-03-17T16:55:55.383Z,6.62
2018-03-17T16:58:23.484Z,6.00
2018-03-17T17:00:51.549Z,5.93
2018-03-17T17:03:21.527Z,6.75
2018-03-17T17:05:49.493Z,6.40
2018-03-17T17:08:17.638Z,6.20
2018-03-17T17:10:45.640Z,6.18
2018-03-17T17:13:13.755Z,6.18
2018-03-17T17:15:43.312Z,5.95
2018-03-17T17:18:11.373Z,7.00
2018-03-17T17:20:39.420Z,6.70
2018-03-17T17:23:07.464Z,6.20
2018-03-17T17:25:35.533Z,6.77
2018-03-17T17:28:03.581Z,6.47
2018-03-17T17:30:31.664Z,6.80
2018-03-17T17:33:00.607Z,6.43
2018-03-17T17:35:28.633Z,6.77
2018-03-17T17:37:56.703Z,6.50
2018-03-17T17:40:24.982Z,6.27
2018-03-17T17:42:53.514Z,6.80
2018-03-17T17:45:21.788Z,6.47
2018-03-17T17:47:49.846Z,6.73
2018-03-17T17:50:17.886Z,7.60
2018-03-17T17:52:46.754Z,7.45
2018-03-17T17:55:15.438Z,7.50
2018-03-17T17:57:43.493Z,6.77
2018-03-17T18:00:11.539Z,6.90
2018-03-17T18:02:39.616Z,6.95
2018-03-17T18:05:07.669Z,6.70
2018-03-17T18:07:35.733Z,6.07
2018-03-17T18:10:03.803Z,6.22
2018-03-17T18:12:31.879Z,6.30
2018-03-17T18:14:59.961Z,5.87
2018-03-17T18:17:28.008Z,6.10
2018-03-17T18:19:56.052Z,6.15
2018-03-17T18:22:24.927Z,5.75
2018-03-17T18:24:52.974Z,6.00
2018-03-17T18:27:21.030Z,5.33
2018-03-17T18:29:49.072Z,5.95
2018-03-17T18:32:17.195Z,5.60
2018-03-17T18:34:45.253Z,5.85
2018-03-17T18:37:13.348Z,6.10
2018-03-17T18:39:41.421Z,6.40
2018-03-17T18:42:09.488Z,6.05
2018-03-17T18:44:37.537Z,6.15
2018-03-17T18:47:07.262Z,5.85
2018-03-17T18:49:35.319Z,6.43
2018-03-17T18:52:03.429Z,6.07
2018-03-17T18:54:32.277Z,6.03
2018-03-17T18:57:01.164Z,5.85
2018-03-17T18:59:29.196Z,5.82
2018-03-17T19:01:57.237Z,5.80
2018-03-17T19:04:25.988Z,5.97
2018-03-17T19:06:54.020Z,6.18
2018-03-17T19:09:22.448Z,5.90
2018-03-17T19:11:51.243Z,5.90
2018-03-17T19:14:19.274Z,6.03
2018-03-17T19:16:47.324Z,6.60
2018-03-17T19:19:15.381Z,5.53
2018-03-17T19:21:43.421Z,5.80
2018-03-17T19:24:11.482Z,6.50
2018-03-17T19:26:39.571Z,6.20
2018-03-17T19:29:07.651Z,6.30
2018-03-17T19:31:35.725Z,5.95
2018-03-17T19:34:03.801Z,5.53
2018-03-17T19:36:31.901Z,5.80
2018-03-17T19:38:59.935Z,6.35
2018-03-17T19:41:28.002Z,5.35
2018-03-17T19:43:56.779Z,6.37
2018-03-17T19:46:24.813Z,6.37
2018-03-17T19:48:52.834Z,6.17
2018-03-17T19:51:20.909Z,5.63
2018-03-17T19:53:49.268Z,6.37
2018-03-17T19:56:17.309Z,6.20
2018-03-17T19:58:45.373Z,7.00
2018-03-17T20:01:13.948Z,6.32
2018-03-17T20:03:41.989Z,5.53
2018-03-17T20:06:10.084Z,5.53
2018-03-17T20:08:38.132Z,5.43
2018-03-17T20:11:06.180Z,5.87
2018-03-17T20:13:34.989Z,5.25
2018-03-17T20:16:03.030Z,5.40
2018-03-17T20:18:31.090Z,5.60
2018-03-17T20:20:59.188Z,5.65
2018-03-17T20:23:28.394Z,5.60
2018-03-17T20:25:56.445Z,5.30
2018-03-17T20:28:24.494Z,4.90
2018-03-17T20:30:52.556Z,5.50
2018-03-17T20:33:21.722Z,5.03
2018-03-17T20:35:49.888Z,5.10
2018-03-17T20:38:17.920Z,4.82
2018-03-17T20:40:45.984Z,4.90
2018-03-17T20:43:14.027Z,4.50
2018-03-17T20:45:42.095Z,5.00
2018-03-17T20:48:10.136Z,4.30
2018-03-17T20:50:38.206Z,4.72
2018-03-17T20:53:06.272Z,4.50
2018-03-17T20:55:34.327Z,5.03
2018-03-17T20:58:02.399Z,4.68
2018-03-17T21:00:30.453Z,4.25
2018-03-17T21:02:58.540Z,4.57
2018-03-17T21:05:27.789Z,4.25
2018-03-17T21:07:55.824Z,4.45
2018-03-17T21:10:23.871Z,4.57
2018-03-17T21:12:51.923Z,4.30
2018-03-17T21:15:20.000Z,4.82
2018-03-17T21:17:49.452Z,4.10
2018-03-17T21:20:17.505Z,4.35
2018-03-17T21:22:47.074Z,4.05
2018-03-17T21:25:15.164Z,4.00
2018-03-17T21:27:43.222Z,4.25
2018-03-17T21:30:11.265Z,4.20
2018-03-17T21:32:39.398Z,4.40
2018-03-17T21:35:07.426Z,4.22
2018-03-17T21:37:35.491Z,4.47
2018-03-17T21:40:03.593Z,4.57
2018-03-17T21:42:31.724Z,4.32
2018-03-17T21:44:59.757Z,5.20
2018-03-17T21:47:27.816Z,5.47
2018-03-17T21:49:55.882Z,6.40
2018-03-17T21:52:23.934Z,5.37
2018-03-17T21:54:52.005Z,5.30
2018-03-17T21:57:20.062Z,5.12
2018-03-17T21:59:48.141Z,4.78
2018-03-17T22:02:16.271Z,4.10
2018-03-17T22:04:44.543Z,4.35
2018-03-17T22:07:12.604Z,4.15
2018-03-17T22:09:40.666Z,4.20
2018-03-17T22:12:08.713Z,3.70
2018-03-17T22:14:36.766Z,4.65
2018-03-17T22:17:04.809Z,4.47
2018-03-17T22:19:32.883Z,4.85
2018-03-17T22:22:01.190Z,4.30
2018-03-17T22:24:29.486Z,4.07
2018-03-17T22:26:57.786Z,4.70
2018-03-17T22:29:25.882Z,4.75
2018-03-17T22:31:53.956Z,4.90
2018-03-17T22:34:21.981Z,4.87
2018-03-17T22:36:50.000Z,5.22
2018-03-17T22:39:18.044Z,4.62
2018-03-17T22:41:46.080Z,4.87
2018-03-17T22:44:14.872Z,4.47
2018-03-17T22:46:43.165Z,4.43
2018-03-17T22:49:11.201Z,4.60
2018-03-17T22:51:39.254Z,3.97
2018-03-17T22:54:07.322Z,4.35
2018-03-17T22:56:35.379Z,4.97
2018-03-17T22:59:03.441Z,4.30
2018-03-17T23:01:31.501Z,4.40
2018-03-17T23:03:59.558Z,4.00
2018-03-17T23:06:27.616Z,4.25
2018-03-17T23:08:56.450Z,4.20
2018-03-17T23:11:24.528Z,4.50
2018-03-17T23:13:52.567Z,4.70
2018-03-17T23:16:20.615Z,4.50
2018-03-17T23:18:48.657Z,3.97
2018-03-17T23:21:16.708Z,4.30
2018-03-17T23:23:44.770Z,4.37
2018-03-17T23:26:12.795Z,4.47
2018-03-17T23:28:40.832Z,4.03
2018-03-17T23:31:08.889Z,4.15
2018-03-17T23:33:36.921Z,4.32
2018-03-17T23:36:05.016Z,4.30
2018-03-17T23:38:33.045Z,3.92
2018-03-17T23:41:01.074Z,4.10
2018-03-17T23:43:29.128Z,3.97
2018-03-17T23:45:57.182Z,4.07
2018-03-17T23:48:25.999Z,4.32
2018-03-17T23:50:54.044Z,4.20
2018-03-17T23:53:22.082Z,3.90
2018-03-17T23:55:50.364Z,4.07
2018-03-17T23:58:19.931Z,4.40
